Time;durP1;ratioP1;P1;durP2;ratioP2;P2;SDS_P1;SDS_P2;PMS_P1;PMS_P2;Temp;Humidity;BMP_temperature;BMP_pressure;BME280_temperature;BME280_humidity;BME280_pressure;Samples;Min_cycle;Max_cycle;Signal;HPM_P1;HPM_P2
2021/12/03 00:00:48;;;;;;;18.77;9.73;;;4.80;99.90;;;4.13;100.00;101406.81;4119025;28;20035;-72
2021/12/03 00:02:49;;;;;;;16.17;10.02;;;4.70;99.90;;;4.18;100.00;101407.38;4117949;28;20437;-72
2021/12/03 00:04:50;;;;;;;13.00;7.22;;;4.70;99.90;;;4.13;100.00;101392.00;4117917;28;20035;-72
2021/12/03 00:06:51;;;;;;;11.13;6.20;;;4.70;99.90;;;4.16;100.00;101406.63;4137022;28;20080;-72
2021/12/03 00:08:53;;;;;;;14.23;7.60;;;4.70;99.90;;;4.18;100.00;101410.00;4121730;28;20039;-72
2021/12/03 00:11:01;;;;;;;10.13;7.10;;;4.70;99.90;;;4.11;100.00;101417.38;4122531;28;20015;-72
2021/12/03 00:13:04;;;;;;;12.43;7.85;;;4.60;99.90;;;4.12;100.00;101419.03;4120898;28;20026;-72
2021/12/03 00:15:10;;;;;;;11.57;6.72;;;4.60;99.90;;;4.27;100.00;101425.06;4136791;28;20018;-73
2021/12/03 00:17:11;;;;;;;13.95;9.10;;;4.70;99.90;;;4.25;100.00;101421.69;4136757;28;20030;-72
2021/12/03 00:19:12;;;;;;;15.38;11.20;;;4.70;99.90;;;4.20;100.00;101424.63;4111838;28;20094;-72
2021/12/03 00:21:13;;;;;;;22.65;14.45;;;4.70;99.90;;;4.08;100.00;101427.16;4122073;28;20039;-72
2021/12/03 00:23:15;;;;;;;14.18;10.50;;;4.70;99.90;;;4.23;100.00;101432.25;4121015;28;20023;-72
2021/12/03 00:25:16;;;;;;;11.15;8.15;;;4.80;99.90;;;4.33;100.00;101417.66;4121841;28;20035;-72
2021/12/03 00:27:18;;;;;;;14.40;8.20;;;4.80;99.90;;;4.33;100.00;101416.84;4120716;28;20037;-72
2021/12/03 00:29:19;;;;;;;15.10;9.27;;;4.80;99.90;;;4.32;100.00;101395.09;4121722;28;20034;-72
2021/12/03 00:31:20;;;;;;;25.17;13.75;;;4.80;99.90;;;4.29;100.00;101395.28;4120615;28;20037;-72
2021/12/03 00:33:21;;;;;;;38.75;22.98;;;4.80;99.90;;;4.33;100.00;101394.13;4120258;28;20023;-72
2021/12/03 00:35:22;;;;;;;46.55;27.70;;;4.80;99.90;;;4.38;100.00;101402.53;4111491;28;20050;-72
2021/12/03 00:37:23;;;;;;;38.30;25.80;;;4.80;99.90;;;4.21;100.00;101394.94;4120620;28;20027;-72
2021/12/03 00:39:24;;;;;;;30.70;20.27;;;4.80;99.90;;;4.23;100.00;101402.69;4121664;28;20506;-72
2021/12/03 00:41:30;;;;;;;25.67;15.15;;;4.70;99.90;;;4.22;100.00;101398.38;4120375;28;20049;-72
2021/12/03 00:43:31;;;;;;;17.88;12.48;;;4.70;99.90;;;4.27;100.00;101394.53;4104775;28;20027;-72
2021/12/03 00:45:33;;;;;;;12.25;9.70;;;4.70;99.90;;;4.33;100.00;101396.75;4136353;28;20596;-72
2021/12/03 00:47:34;;;;;;;11.25;8.93;;;4.80;99.90;;;4.42;100.00;101401.38;4149610;28;20036;-72
2021/12/03 00:49:35;;;;;;;11.80;6.95;;;4.70;99.90;;;4.30;100.00;101402.16;4108474;28;20537;-72
2021/12/03 00:51:36;;;;;;;9.55;6.90;;;4.80;99.90;;;4.36;100.00;101393.94;4120450;28;20027;-72
2021/12/03 00:53:38;;;;;;;9.38;7.13;;;4.70;99.90;;;4.52;100.00;101392.94;4121480;28;20051;-72
2021/12/03 00:55:39;;;;;;;10.45;6.60;;;4.80;99.90;;;4.48;100.00;101389.69;4120196;28;20030;-72
2021/12/03 00:57:40;;;;;;;12.48;6.15;;;4.80;99.90;;;4.40;100.00;101384.13;4121547;28;20083;-72
2021/12/03 00:59:42;;;;;;;7.75;5.85;;;4.80;99.90;;;4.26;100.00;101385.03;4121459;28;20027;-72
2021/12/03 01:01:43;;;;;;;10.40;6.47;;;4.70;99.90;;;4.30;100.00;101381.28;4119995;28;20034;-72
2021/12/03 01:03:44;;;;;;;15.52;7.75;;;4.70;99.90;;;4.17;100.00;101379.59;4119907;28;20046;-72
2021/12/03 01:05:45;;;;;;;11.98;7.38;;;4.10;99.90;;;4.12;100.00;101366.81;4121338;28;20039;-72
2021/12/03 01:07:46;;;;;;;10.75;7.07;;;4.60;99.90;;;4.08;100.00;101357.53;4121111;28;20117;-73
2021/12/03 01:09:47;;;;;;;12.18;6.60;;;4.60;99.90;;;4.04;100.00;101348.19;4136111;28;20033;-72
2021/12/03 01:11:49;;;;;;;7.25;5.18;;;4.50;99.90;;;4.25;100.00;101361.63;4121125;28;20027;-72
2021/12/03 01:13:53;;;;;;;6.70;4.70;;;4.60;99.90;;;4.27;100.00;101365.00;4119847;28;20027;-72
2021/12/03 01:15:54;;;;;;;5.53;4.10;;;4.60;99.90;;;4.26;100.00;101374.59;4121163;28;20100;-72
2021/12/03 01:17:56;;;;;;;7.95;5.30;;;4.60;99.90;;;4.26;100.00;101363.31;4120287;28;20031;-73
2021/12/03 01:19:59;;;;;;;8.43;4.97;;;4.60;99.90;;;4.16;100.00;101367.44;4119598;28;20430;-72
2021/12/03 01:22:00;;;;;;;10.02;4.97;;;4.60;99.90;;;4.20;100.00;101363.72;4119589;28;20023;-72
2021/12/03 01:24:02;;;;;;;7.65;5.90;;;4.60;99.90;;;4.14;100.00;101371.94;4119875;28;20078;-72
2021/12/03 01:26:03;;;;;;;7.70;5.20;;;5.00;99.90;;;4.18;100.00;101369.03;4121004;28;20051;-72
2021/12/03 01:28:05;;;;;;;8.75;5.10;;;4.70;99.90;;;4.17;100.00;101358.69;4121002;28;20039;-72
2021/12/03 01:30:11;;;;;;;6.35;5.20;;;4.70;99.90;;;4.20;100.00;101348.06;4119565;28;20023;-72
2021/12/03 01:32:11;;;;;;;7.35;5.15;;;4.70;99.90;;;4.12;100.00;101348.53;4120987;28;20158;-72
2021/12/03 01:34:14;;;;;;;8.30;6.13;;;4.70;99.90;;;4.25;100.00;101349.41;4120602;28;20027;-72
2021/12/03 01:36:15;;;;;;;9.20;4.97;;;4.70;99.90;;;4.21;100.00;101345.31;4120627;28;20027;-72
2021/12/03 01:38:16;;;;;;;9.88;5.63;;;4.70;99.90;;;4.22;100.00;101349.63;4119663;28;20027;-72
2021/12/03 01:40:23;;;;;;;9.32;5.63;;;4.80;99.90;;;4.19;100.00;101355.03;4151989;28;20044;-72
2021/12/03 01:42:24;;;;;;;8.95;6.10;;;4.90;99.90;;;4.29;100.00;101378.78;4120661;28;20037;-72
2021/12/03 01:44:25;;;;;;;9.10;5.75;;;4.90;99.90;;;4.33;100.00;101381.06;4120518;28;20034;-72
2021/12/03 01:46:26;;;;;;;8.05;6.13;;;5.00;99.90;;;4.41;100.00;101378.81;4119517;28;20030;-72
2021/12/03 01:48:28;;;;;;;9.30;5.15;;;5.00;99.90;;;4.42;100.00;101380.47;4120201;28;20442;-72
2021/12/03 01:50:41;;;;;;;8.00;5.32;;;5.00;99.90;;;4.40;100.00;101377.13;4119412;28;20470;-72
2021/12/03 01:52:42;;;;;;;9.38;5.00;;;5.10;99.90;;;4.43;100.00;101366.50;4120389;28;20026;-72
2021/12/03 01:54:43;;;;;;;6.68;5.55;;;5.10;99.90;;;4.45;100.00;101372.44;4119366;28;20027;-72
2021/12/03 01:56:44;;;;;;;10.27;5.53;;;5.10;99.90;;;4.46;100.00;101381.13;4119330;28;20030;-72
2021/12/03 01:58:47;;;;;;;8.52;5.53;;;5.00;99.90;;;4.51;100.00;101373.00;4120433;28;20447;-72
2021/12/03 02:00:58;;;;;;;6.72;5.15;;;5.10;99.90;;;4.54;100.00;101367.56;4119149;28;20042;-72
2021/12/03 02:03:00;;;;;;;13.18;6.05;;;5.10;99.90;;;4.50;100.00;101350.41;4120381;28;20038;-72
2021/12/03 02:05:01;;;;;;;11.07;7.07;;;5.10;99.90;;;4.65;100.00;101378.13;4120066;28;20035;-72
2021/12/03 02:07:02;;;;;;;12.55;6.15;;;5.20;99.90;;;4.65;100.00;101378.13;4135011;28;20037;-72
2021/12/03 02:09:05;;;;;;;9.60;6.32;;;5.20;99.90;;;4.62;100.00;101379.19;4134983;28;20457;-72
2021/12/03 02:11:09;;;;;;;5.65;4.07;;;5.20;99.90;;;4.56;100.00;101368.28;4119214;28;20030;-72
2021/12/03 02:13:12;;;;;;;11.07;6.32;;;5.20;99.90;;;4.67;100.00;101365.78;4119170;28;20161;-72
2021/12/03 02:15:14;;;;;;;9.23;6.30;;;5.20;99.90;;;4.57;100.00;101377.81;4134923;28;20065;-72
2021/12/03 02:17:15;;;;;;;9.32;7.07;;;5.20;99.90;;;4.57;100.00;101385.66;4138919;28;20029;-72
2021/12/03 02:19:17;;;;;;;9.98;7.07;;;5.30;99.90;;;4.67;100.00;101364.00;4151146;28;20056;-72
2021/12/03 02:21:20;;;;;;;10.10;6.60;;;5.30;99.90;;;4.67;100.00;101366.63;4118958;28;20041;-72
2021/12/03 02:23:23;;;;;;;11.70;6.68;;;5.30;99.90;;;4.68;100.00;101363.09;4120111;28;20027;-72
2021/12/03 02:25:26;;;;;;;7.82;5.72;;;5.30;99.90;;;4.78;100.00;101355.47;4120160;28;20483;-72
2021/12/03 02:27:27;;;;;;;11.07;5.22;;;5.40;99.90;;;4.95;100.00;101342.91;4118957;28;20023;-72
2021/12/03 02:29:28;;;;;;;7.22;4.40;;;5.40;99.90;;;5.15;100.00;101332.84;4119654;28;20031;-72
2021/12/03 02:31:29;;;;;;;5.88;4.43;;;5.50;99.90;;;5.10;100.00;101343.63;4118876;28;20023;-72
2021/12/03 02:33:33;;;;;;;7.13;4.22;;;5.50;99.90;;;5.11;100.00;101341.88;4119845;28;20081;-72
2021/12/03 02:35:34;;;;;;;8.25;5.22;;;5.60;99.90;;;4.85;100.00;101341.88;4118828;28;20030;-72
2021/12/03 02:37:35;;;;;;;5.72;4.68;;;5.10;99.90;;;4.61;100.00;101342.69;4118747;28;20031;-72
2021/12/03 02:39:36;;;;;;;6.55;4.20;;;5.50;99.90;;;4.72;100.00;101355.88;4119815;28;20045;-72
2021/12/03 02:41:37;;;;;;;8.10;4.97;;;5.40;99.90;;;4.72;100.00;101355.88;4119985;28;20078;-72
2021/12/03 02:43:39;;;;;;;7.85;4.97;;;5.40;99.90;;;4.66;100.00;101348.44;4119946;28;20030;-72
2021/12/03 02:45:41;;;;;;;7.15;4.75;;;5.40;99.90;;;4.65;100.00;101358.06;4119821;28;20023;-72
2021/12/03 02:47:42;;;;;;;8.18;5.25;;;5.40;99.90;;;4.72;100.00;101346.25;4119829;28;20085;-72
2021/12/03 02:49:43;;;;;;;6.88;4.85;;;5.40;99.90;;;4.80;100.00;101346.56;4119603;28;20097;-72
2021/12/03 02:51:45;;;;;;;5.85;5.05;;;5.40;99.90;;;4.82;100.00;101357.75;4119904;28;20446;-72
2021/12/03 02:53:46;;;;;;;7.53;4.95;;;5.40;99.90;;;4.91;100.00;101369.34;4119778;28;20038;-72
2021/12/03 02:55:47;;;;;;;6.65;5.38;;;5.50;99.90;;;4.89;100.00;101368.63;4119772;28;20035;-72
2021/12/03 02:57:48;;;;;;;5.95;5.35;;;5.50;99.90;;;4.86;100.00;101363.63;4118566;28;20034;-72
2021/12/03 02:59:49;;;;;;;8.50;6.22;;;5.50;99.90;;;4.98;100.00;101375.84;4119649;28;20031;-72
2021/12/03 03:01:50;;;;;;;9.70;5.13;;;5.50;99.90;;;5.08;100.00;101373.44;4118528;28;20023;-72
2021/12/03 03:03:51;;;;;;;11.05;5.20;;;5.50;99.90;;;5.12;100.00;101380.97;4134221;28;20038;-72
2021/12/03 03:05:58;;;;;;;6.72;4.95;;;5.60;99.90;;;5.08;100.00;101384.72;4118492;28;20418;-72
2021/12/03 03:07:59;;;;;;;7.25;5.45;;;5.60;99.90;;;4.93;100.00;101386.59;4118478;28;20380;-72
2021/12/03 03:10:00;;;;;;;7.22;5.25;;;5.60;99.90;;;4.91;100.00;101385.03;4134561;28;20132;-72
2021/12/03 03:12:01;;;;;;;9.38;5.88;;;5.60;99.90;;;4.96;100.00;101375.94;4118297;28;20099;-72
2021/12/03 03:14:04;;;;;;;8.57;5.13;;;5.60;99.90;;;4.93;100.00;101377.91;4134611;28;20023;-72
2021/12/03 03:16:06;;;;;;;8.95;5.43;;;5.60;99.90;;;4.73;100.00;101374.06;4118452;28;20030;-72
2021/12/03 03:18:22;;;;;;;9.55;6.13;;;5.60;99.90;;;4.74;100.00;101354.84;4118185;28;20049;-72
2021/12/03 03:20:23;;;;;;;6.72;5.63;;;5.50;99.90;;;4.69;100.00;101349.06;4118329;28;20640;-72
2021/12/03 03:22:26;;;;;;;7.60;4.97;;;5.50;99.90;;;4.82;100.00;101341.22;4119557;28;20047;-72
2021/12/03 03:24:27;;;;;;;6.28;5.43;;;5.50;99.90;;;4.94;100.00;101340.38;4119614;28;20066;-72
2021/12/03 03:26:29;;;;;;;9.88;5.88;;;5.60;99.90;;;5.10;100.00;101325.34;4118337;28;20542;-72
2021/12/03 03:28:30;;;;;;;7.47;5.72;;;5.60;99.90;;;5.28;100.00;101331.06;4119367;28;20548;-72
2021/12/03 03:30:32;;;;;;;7.65;5.82;;;5.70;99.90;;;5.32;100.00;101333.31;4118375;28;20023;-72
2021/12/03 03:32:33;;;;;;;9.15;6.25;;;5.70;99.90;;;5.00;100.00;101332.97;4118374;28;20034;-72
2021/12/03 03:34:34;;;;;;;6.05;5.18;;;5.70;99.90;;;4.97;100.00;101324.50;4118032;28;20027;-72
2021/12/03 03:36:38;;;;;;;9.40;5.70;;;5.70;99.90;;;5.11;100.00;101328.78;4119510;28;20486;-72
2021/12/03 03:38:38;;;;;;;8.65;5.45;;;5.70;99.90;;;5.10;100.00;101320.09;4119516;28;20035;-72
2021/12/03 03:40:41;;;;;;;8.73;6.00;;;5.70;99.90;;;5.07;100.00;101322.94;4120885;28;20031;-72
2021/12/03 03:42:43;;;;;;;8.35;6.00;;;5.70;99.90;;;5.27;100.00;101317.13;4121332;28;20573;-72
2021/12/03 03:44:44;;;;;;;6.75;5.70;;;5.70;99.90;;;5.02;100.00;101302.31;4121483;28;20038;-72
2021/12/03 03:46:48;;;;;;;7.85;6.60;;;5.30;99.90;;;5.05;100.00;101306.50;4122552;28;20046;-72
2021/12/03 03:48:49;;;;;;;9.35;5.88;;;5.70;99.90;;;5.25;100.00;101318.19;4120949;28;20185;-72
2021/12/03 03:50:51;;;;;;;9.30;6.63;;;5.70;99.90;;;5.29;100.00;101314.38;4137258;28;20022;-72
2021/12/03 03:52:54;;;;;;;9.55;6.10;;;5.70;99.90;;;5.22;100.00;101307.94;4140831;28;20026;-72
2021/12/03 03:54:55;;;;;;;7.15;6.45;;;5.80;99.90;;;5.29;100.00;101299.53;4122578;28;20023;-72
2021/12/03 03:56:59;;;;;;;9.35;5.80;;;5.80;99.90;;;5.34;100.00;101296.63;4121147;28;20052;-72
2021/12/03 03:59:00;;;;;;;8.38;5.43;;;5.90;99.90;;;5.07;100.00;101280.25;4122241;28;20027;-72
2021/12/03 04:01:01;;;;;;;8.57;5.93;;;5.80;99.90;;;4.88;100.00;101267.63;4122357;28;20054;-72
2021/12/03 04:03:03;;;;;;;8.07;5.80;;;5.70;99.90;;;4.97;100.00;101264.38;4121854;28;20109;-72
2021/12/03 04:05:05;;;;;;;10.70;6.07;;;5.70;99.90;;;4.95;100.00;101261.88;4122244;28;20406;-72
2021/12/03 04:07:06;;;;;;;8.93;6.07;;;5.70;99.90;;;4.92;100.00;101259.47;4122021;28;20058;-72
2021/12/03 04:09:08;;;;;;;7.57;5.82;;;5.70;99.90;;;5.02;100.00;101260.47;4137106;28;20034;-72
2021/12/03 04:11:11;;;;;;;11.75;6.22;;;5.70;99.90;;;5.10;100.00;101252.13;4122196;28;20034;-72
2021/12/03 04:13:12;;;;;;;7.70;5.38;;;5.70;99.90;;;5.23;100.00;101239.81;4122087;28;20038;-72
2021/12/03 04:15:14;;;;;;;8.93;5.57;;;5.80;99.90;;;4.93;100.00;101244.59;4121933;28;20482;-72
2021/12/03 04:17:15;;;;;;;8.38;6.20;;;5.70;99.90;;;4.94;100.00;101230.59;4120957;28;20031;-72
2021/12/03 04:19:17;;;;;;;7.70;5.93;;;5.70;99.90;;;4.95;100.00;101240.13;4121828;28;20035;-72
2021/12/03 04:21:18;;;;;;;6.72;5.63;;;5.70;99.90;;;4.98;100.00;101247.75;4121811;28;20033;-71
2021/12/03 04:23:20;;;;;;;7.57;6.00;;;5.70;99.90;;;5.04;100.00;101239.47;4121906;28;20030;-72
2021/12/03 04:25:23;;;;;;;8.98;5.72;;;5.70;99.90;;;5.23;100.00;101237.19;4122015;28;20118;-72
2021/12/03 04:27:24;;;;;;;9.25;5.90;;;5.70;99.90;;;4.99;100.00;101231.09;4122015;28;20027;-72
2021/12/03 04:29:24;;;;;;;7.82;5.45;;;5.70;99.90;;;4.88;100.00;101239.72;4120646;28;20078;-72
2021/12/03 04:31:26;;;;;;;7.50;6.00;;;5.70;99.90;;;4.88;100.00;101233.66;4121819;28;20113;-72
2021/12/03 04:33:27;;;;;;;8.18;5.70;;;5.70;99.90;;;5.00;100.00;101222.31;4120460;28;20026;-72
2021/12/03 04:35:29;;;;;;;12.07;6.65;;;5.70;99.90;;;5.17;100.00;101218.53;4121832;28;20062;-72
2021/12/03 04:37:30;;;;;;;13.00;6.57;;;5.70;99.90;;;5.16;100.00;101214.22;4120545;28;20026;-72
2021/12/03 04:39:31;;;;;;;7.30;5.30;;;5.80;99.90;;;5.05;100.00;101201.91;4121665;28;20037;-72
2021/12/03 04:41:32;;;;;;;7.35;5.65;;;5.70;99.90;;;4.91;100.00;101189.84;4120596;28;20027;-72
2021/12/03 04:43:34;;;;;;;10.82;6.32;;;5.70;99.90;;;5.00;100.00;101190.94;4121792;28;20521;-72
2021/12/03 04:45:35;;;;;;;10.20;5.97;;;5.70;99.90;;;5.06;100.00;101193.13;4121611;28;20027;-72
2021/12/03 04:47:36;;;;;;;6.68;5.70;;;6.00;99.90;;;5.00;100.00;101172.66;4121536;28;20118;-72
2021/12/03 04:49:37;;;;;;;7.97;6.13;;;5.70;99.90;;;5.18;100.00;101181.78;4121281;28;20031;-72
2021/12/03 04:51:38;;;;;;;8.15;6.93;;;5.70;99.90;;;5.29;100.00;101191.47;4121411;28;20031;-72
2021/12/03 04:53:39;;;;;;;7.65;6.43;;;5.80;99.90;;;5.24;100.00;101186.56;4120268;28;20529;-72
2021/12/03 04:55:41;;;;;;;9.43;6.18;;;5.80;99.90;;;5.35;100.00;101184.00;4121448;28;20082;-72
2021/12/03 04:57:42;;;;;;;7.38;6.35;;;5.60;99.90;;;5.44;100.00;101180.72;4120064;28;20027;-72
2021/12/03 04:59:44;;;;;;;8.23;5.88;;;5.90;99.90;;;5.16;100.00;101168.00;4121445;28;20471;-72
2021/12/03 05:01:45;;;;;;;10.00;6.43;;;5.80;99.90;;;5.05;100.00;101170.53;4120185;28;20031;-72
2021/12/03 05:03:46;;;;;;;8.20;6.03;;;5.80;99.90;;;5.13;100.00;101173.44;4120924;28;20047;-72
2021/12/03 05:05:55;;;;;;;11.35;6.53;;;5.70;99.90;;;5.13;100.00;101172.63;4121354;28;20486;-72
2021/12/03 05:07:59;;;;;;;7.65;6.20;;;5.80;99.90;;;5.02;100.00;101175.97;4121061;28;20034;-72
2021/12/03 05:10:00;;;;;;;8.85;6.13;;;5.70;99.90;;;5.12;100.00;101171.78;4135906;28;20458;-72
2021/12/03 05:12:02;;;;;;;9.40;6.70;;;5.70;99.90;;;5.22;100.00;101166.72;4121052;28;20035;-72
2021/12/03 05:14:03;;;;;;;10.38;6.57;;;5.80;99.90;;;5.04;100.00;101150.59;4121251;28;20069;-72
2021/12/03 05:16:05;;;;;;;7.60;6.43;;;5.80;99.90;;;5.12;100.00;101148.25;4121278;28;20027;-72
2021/12/03 05:18:09;;;;;;;9.63;7.53;;;5.70;99.90;;;5.20;100.00;101166.81;4120856;28;20031;-72
2021/12/03 05:20:11;;;;;;;9.73;6.75;;;5.80;99.90;;;5.15;100.00;101160.25;4119858;28;20530;-72
2021/12/03 05:22:13;;;;;;;10.52;6.47;;;5.80;99.90;;;5.20;100.00;101161.59;4119849;28;20033;-72
2021/12/03 05:24:15;;;;;;;9.00;6.30;;;5.80;99.90;;;5.21;100.00;101157.19;4119941;28;20054;-72
2021/12/03 05:26:15;;;;;;;12.18;6.82;;;5.80;99.90;;;5.19;100.00;101153.88;4119666;28;20026;-72
2021/12/03 05:28:18;;;;;;;7.65;6.15;;;5.80;99.90;;;5.22;100.00;101156.25;4135709;28;20605;-72
2021/12/03 05:30:20;;;;;;;9.27;6.03;;;5.90;99.90;;;5.15;100.00;101148.00;4120992;28;20027;-72
2021/12/03 05:32:21;;;;;;;8.82;6.10;;;5.90;99.90;;;5.21;100.00;101138.88;4120909;28;20026;-72
2021/12/03 05:34:22;;;;;;;8.75;5.95;;;5.60;99.90;;;5.25;100.00;101135.94;4120617;28;20038;-72
2021/12/03 05:36:23;;;;;;;10.77;6.40;;;5.90;99.90;;;5.45;100.00;101139.69;4120677;28;20081;-72
2021/12/03 05:38:24;;;;;;;8.52;5.97;;;6.00;99.90;;;5.43;100.00;101134.59;4120859;28;20085;-72
2021/12/03 05:40:26;;;;;;;6.85;5.50;;;5.90;99.90;;;5.32;100.00;101146.78;4120798;28;20027;-72
2021/12/03 05:42:27;;;;;;;9.77;6.75;;;6.00;99.90;;;5.35;100.00;101147.38;4120727;28;20462;-72
2021/12/03 05:44:29;;;;;;;10.93;7.05;;;6.00;99.90;;;5.35;100.00;101147.38;4119365;28;20093;-72
2021/12/03 05:46:31;;;;;;;8.73;6.45;;;6.00;99.90;;;5.38;100.00;101146.31;4120708;28;20030;-72
2021/12/03 05:48:32;;;;;;;8.25;6.28;;;6.00;99.90;;;5.49;100.00;101128.06;4119231;28;20027;-72
2021/12/03 05:50:34;;;;;;;8.55;6.18;;;6.00;99.90;;;5.39;100.00;101127.91;4120616;28;20073;-72
2021/12/03 05:52:35;;;;;;;11.20;7.82;;;6.10;99.90;;;5.33;100.00;101128.38;4120432;28;20029;-72
2021/12/03 05:54:36;;;;;;;11.93;6.93;;;5.90;99.90;;;5.32;100.00;101121.47;4119395;28;20122;-72
2021/12/03 05:56:37;;;;;;;9.40;6.30;;;6.00;99.90;;;5.56;100.00;101118.81;4135539;28;20401;-72
2021/12/03 05:58:38;;;;;;;9.48;6.68;;;6.10;99.90;;;5.65;100.00;101125.13;4119249;28;20033;-72
2021/12/03 06:00:42;;;;;;;9.88;7.25;;;6.10;99.90;;;5.64;100.00;101126.09;4119259;28;20031;-72
2021/12/03 06:02:43;;;;;;;10.15;7.28;;;6.20;99.90;;;5.57;100.00;101129.16;4120010;28;20077;-72
2021/12/03 06:04:44;;;;;;;9.80;7.90;;;6.20;99.90;;;5.54;100.00;101126.78;4119840;28;20046;-72
2021/12/03 06:06:45;;;;;;;9.15;7.68;;;6.10;99.90;;;5.39;100.00;101117.44;4119266;28;20026;-72
2021/12/03 06:08:46;;;;;;;10.15;7.93;;;6.20;99.90;;;5.42;100.00;101113.75;4120241;28;20111;-72
2021/12/03 06:10:47;;;;;;;11.55;8.68;;;6.20;99.90;;;5.68;100.00;101124.88;4120415;28;20027;-72
2021/12/03 06:12:50;;;;;;;12.40;8.05;;;6.20;99.90;;;5.53;100.00;101117.25;4119103;28;20429;-72
2021/12/03 06:14:51;;;;;;;12.20;7.93;;;7.20;99.90;;;5.59;100.00;101129.88;4119259;28;20500;-72
2021/12/03 06:16:52;;;;;;;10.90;8.38;;;6.30;99.90;;;5.62;100.00;101128.81;4120164;28;20115;-72
2021/12/03 06:18:53;;;;;;;13.98;8.82;;;6.20;99.90;;;5.57;100.00;101129.16;4120053;28;20041;-72
2021/12/03 06:20:54;;;;;;;13.88;8.15;;;6.20;99.90;;;5.55;100.00;101125.81;4119160;28;20409;-72
2021/12/03 06:22:55;;;;;;;11.63;8.82;;;6.20;99.90;;;5.62;100.00;101112.28;4119920;28;20063;-72
2021/12/03 06:24:56;;;;;;;10.48;7.97;;;6.30;99.90;;;5.66;100.00;101103.25;4120001;28;20035;-72
2021/12/03 06:26:57;;;;;;;12.43;8.50;;;6.30;99.90;;;5.81;100.00;101097.69;4119763;28;20027;-72
2021/12/03 06:28:58;;;;;;;13.63;9.25;;;6.30;99.90;;;5.77;100.00;101101.47;4119960;28;20085;-72
2021/12/03 06:30:59;;;;;;;12.55;8.43;;;6.40;99.90;;;5.91;100.00;101100.47;4134684;28;20042;-72
2021/12/03 06:33:00;;;;;;;8.18;7.20;;;6.30;99.90;;;5.93;100.00;101094.16;4147784;28;20054;-72
2021/12/03 06:35:04;;;;;;;8.02;6.70;;;6.40;99.90;;;5.98;100.00;101096.41;4119768;28;20576;-72
2021/12/03 06:37:05;;;;;;;9.73;6.55;;;6.50;99.90;;;5.90;100.00;101097.03;4119876;28;20525;-72
2021/12/03 06:39:06;;;;;;;11.15;7.38;;;6.50;99.90;;;6.02;100.00;101090.84;4119777;28;20039;-72
2021/12/03 06:41:07;;;;;;;12.52;7.95;;;6.60;99.90;;;5.97;100.00;101092.97;4118509;28;20557;-72
2021/12/03 06:43:09;;;;;;;19.27;8.18;;;6.60;99.90;;;5.80;100.00;101090.78;4119837;28;20030;-72
2021/12/03 06:45:11;;;;;;;8.50;6.45;;;7.20;99.90;;;5.91;100.00;101087.38;4118473;28;20042;-72
2021/12/03 06:47:12;;;;;;;12.00;6.20;;;6.60;99.90;;;5.96;100.00;101074.75;4118496;28;20114;-72
2021/12/03 06:49:13;;;;;;;7.88;5.75;;;6.60;99.90;;;5.98;100.00;101065.00;4133948;28;20579;-72
2021/12/03 06:51:14;;;;;;;9.00;5.80;;;6.60;99.90;;;6.15;100.00;101059.31;4137743;28;20105;-72
2021/12/03 06:53:16;;;;;;;12.50;6.32;;;6.80;99.90;;;6.12;100.00;101049.88;4119774;28;20027;-73
2021/12/03 06:55:17;;;;;;;8.68;5.65;;;6.70;99.90;;;6.12;100.00;101054.31;4118588;28;20034;-72
2021/12/03 06:57:18;;;;;;;7.88;6.00;;;6.70;99.90;;;6.24;100.00;101052.50;4119743;28;20510;-72
2021/12/03 06:59:22;;;;;;;9.43;6.70;;;6.70;99.90;;;6.17;100.00;101041.69;4119826;28;20039;-72
2021/12/03 07:01:23;;;;;;;9.63;6.67;;;6.80;99.90;;;6.00;100.00;101029.06;4119803;28;20054;-72
2021/12/03 07:03:23;;;;;;;9.27;6.05;;;6.80;99.90;;;6.13;100.00;101029.75;4119298;28;20055;-72
2021/12/03 07:05:24;;;;;;;10.35;6.22;;;6.80;99.90;;;6.13;100.00;101035.00;4134463;28;20042;-72
2021/12/03 07:07:25;;;;;;;9.40;7.65;;;6.80;99.90;;;6.19;100.00;101045.00;4106815;28;20534;-72
2021/12/03 07:09:26;;;;;;;8.10;6.35;;;6.80;99.90;;;6.11;100.00;101029.06;4150737;28;20429;-72
2021/12/03 07:11:27;;;;;;;9.88;7.15;;;6.90;99.90;;;6.14;100.00;101044.53;4119519;28;20023;-72
2021/12/03 07:13:30;;;;;;;8.32;6.70;;;6.90;99.90;;;6.18;100.00;101032.88;4119553;28;20087;-72
2021/12/03 07:15:32;;;;;;;8.30;6.28;;;6.90;99.90;;;6.21;100.00;101027.41;4120733;28;20034;-72
2021/12/03 07:17:33;;;;;;;9.02;6.15;;;6.90;99.90;;;6.32;100.00;101022.13;4122937;28;20510;-72
2021/12/03 07:19:34;;;;;;;10.57;6.75;;;6.90;99.90;;;6.19;100.00;101018.81;4122665;28;20043;-72
2021/12/03 07:21:35;;;;;;;10.75;7.15;;;6.90;99.90;;;6.24;100.00;101015.84;4122787;28;20030;-72
2021/12/03 07:23:36;;;;;;;6.95;6.00;;;7.00;99.90;;;6.39;100.00;101006.75;4122775;28;20038;-72
2021/12/03 07:25:37;;;;;;;8.15;6.07;;;7.00;99.90;;;6.42;100.00;101002.09;4122910;28;20031;-72
2021/12/03 07:27:38;;;;;;;7.75;6.15;;;7.00;99.90;;;6.39;100.00;100999.72;4122848;28;20569;-72
2021/12/03 07:29:39;;;;;;;7.82;6.13;;;7.10;99.90;;;6.48;100.00;100987.69;4121515;28;20460;-72
2021/12/03 07:31:40;;;;;;;7.57;5.55;;;7.10;99.90;;;6.52;100.00;100995.16;4122717;28;20019;-72
2021/12/03 07:33:41;;;;;;;6.38;5.55;;;7.10;99.90;;;6.56;100.00;100986.09;4122520;28;20027;-72
2021/12/03 07:35:45;;;;;;;7.43;5.93;;;7.20;99.90;;;6.56;100.00;100986.09;4122714;28;20031;-72
2021/12/03 07:37:46;;;;;;;6.30;5.13;;;7.40;99.90;;;6.58;100.00;100984.19;4122646;28;20046;-72
2021/12/03 07:39:47;;;;;;;5.53;5.03;;;7.40;99.90;;;6.54;100.00;100979.31;4122476;28;20039;-72
2021/12/03 07:41:48;;;;;;;6.05;5.50;;;7.30;99.90;;;6.67;100.00;100966.88;4122627;28;20390;-72
2021/12/03 07:43:48;;;;;;;6.75;5.18;;;7.30;99.90;;;6.56;100.00;100965.13;4122555;28;20039;-72
2021/12/03 07:45:50;;;;;;;7.43;5.25;;;7.30;99.90;;;6.65;100.00;100964.38;4122342;28;20088;-72
2021/12/03 07:47:51;;;;;;;7.47;6.18;;;7.30;99.90;;;6.66;100.00;100958.16;4122054;28;20070;-72
2021/12/03 07:49:52;;;;;;;6.47;5.43;;;7.30;99.90;;;6.67;100.00;100967.69;4122422;28;20023;-72
2021/12/03 07:51:54;;;;;;;8.07;5.25;;;7.40;99.90;;;6.71;100.00;100956.97;4122314;28;20042;-72
2021/12/03 07:53:55;;;;;;;6.15;5.03;;;7.40;99.90;;;6.74;100.00;100959.34;4121118;28;20038;-72
2021/12/03 07:55:56;;;;;;;7.35;4.88;;;7.40;99.90;;;6.82;100.00;100959.53;4122201;28;20105;-72
2021/12/03 07:57:57;;;;;;;5.95;4.85;;;7.40;99.90;;;6.90;100.00;100955.31;4122332;28;20023;-72
2021/12/03 07:59:59;;;;;;;5.57;5.00;;;7.50;99.90;;;6.97;100.00;100948.59;4120900;28;20435;-72
2021/12/03 08:02:00;;;;;;;6.28;5.18;;;7.50;99.90;;;6.98;100.00;100959.94;4118017;28;20038;-72
2021/12/03 08:04:01;;;;;;;5.78;5.18;;;7.60;99.90;;;7.07;100.00;100953.91;4120377;28;20134;-72
2021/12/03 08:06:08;;;;;;;5.32;3.95;;;7.60;99.90;;;7.07;100.00;100938.19;4137005;28;20026;-72
2021/12/03 08:08:10;;;;;;;5.63;4.40;;;7.70;99.90;;;7.07;100.00;100936.41;4121792;28;20113;-72
2021/12/03 08:10:11;;;;;;;7.25;4.05;;;7.70;99.90;;;7.17;100.00;100939.06;4153086;28;20489;-72
2021/12/03 08:12:12;;;;;;;5.28;4.20;;;7.90;99.90;;;7.15;100.00;100935.75;4120735;28;20062;-72
2021/12/03 08:14:13;;;;;;;4.82;3.35;;;8.00;99.90;;;7.33;100.00;100933.34;4122018;28;20486;-72
2021/12/03 08:16:14;;;;;;;4.10;3.25;;;7.90;99.90;;;7.38;100.00;100929.38;4120752;28;20074;-72
2021/12/03 08:18:15;;;;;;;5.22;3.38;;;8.10;99.90;;;7.45;100.00;100927.88;4136636;28;20031;-72
2021/12/03 08:20:18;;;;;;;8.88;4.10;;;8.10;99.90;;;7.49;100.00;100916.19;4120701;28;20465;-72
2021/12/03 08:22:20;;;;;;;6.93;3.33;;;8.20;99.90;;;7.52;100.00;100913.28;4121933;28;20054;-72
2021/12/03 08:24:21;;;;;;;5.78;3.35;;;8.30;99.90;;;7.68;100.00;100915.41;4121800;28;20082;-72
2021/12/03 08:26:22;;;;;;;6.88;3.75;;;8.30;99.90;;;7.67;100.00;100911.97;4121140;28;20023;-72
2021/12/03 08:28:23;;;;;;;3.95;2.83;;;8.40;99.90;;;7.77;100.00;100904.09;4120356;28;20097;-72
2021/12/03 08:30:29;;;;;;;3.05;2.20;;;8.50;99.90;;;7.78;100.00;100901.34;4121813;28;20031;-72